sensor_id;sensor_type;location;lat;lon;timestamp;pressure;altitude;pressure_sealevel;temperature;humidity
21633;BME280;48765;51.568;8.840;2022-08-03T00:01:39;98543.75;;;17.57;100.00
21633;BME280;48765;51.568;8.840;2022-08-03T00:04:07;98543.84;;;17.54;100.00
21633;BME280;48765;51.568;8.840;2022-08-03T00:06:34;98544.06;;;17.48;100.00
21633;BME280;48765;51.568;8.840;2022-08-03T00:09:02;98542.19;;;17.52;100.00
21633;BME280;48765;51.568;8.840;2022-08-03T00:11:29;98541.44;;;17.75;100.00
21633;BME280;48765;51.568;8.840;2022-08-03T00:13:56;98540.34;;;17.80;100.00
21633;BME280;48765;51.568;8.840;2022-08-03T00:16:23;98541.81;;;17.62;100.00
21633;BME280;48765;51.568;8.840;2022-08-03T00:18:52;98537.88;;;17.73;100.00
21633;BME280;48765;51.568;8.840;2022-08-03T00:21:19;98536.13;;;17.72;100.00
21633;BME280;48765;51.568;8.840;2022-08-03T00:23:46;98538.59;;;17.79;100.00
21633;BME280;48765;51.568;8.840;2022-08-03T00:26:13;98534.38;;;17.71;100.00
21633;BME280;48765;51.568;8.840;2022-08-03T00:28:40;98531.19;;;17.59;100.00
21633;BME280;48765;51.568;8.840;2022-08-03T00:31:07;98530.63;;;17.50;100.00
21633;BME280;48765;51.568;8.840;2022-08-03T00:33:34;98530.88;;;17.69;100.00
21633;BME280;48765;51.568;8.840;2022-08-03T00:36:03;98532.13;;;17.58;100.00
21633;BME280;48765;51.568;8.840;2022-08-03T00:38:30;98531.00;;;17.66;100.00
21633;BME280;48765;51.568;8.840;2022-08-03T00:40:57;98524.28;;;17.52;100.00
21633;BME280;48765;51.568;8.840;2022-08-03T00:43:24;98523.13;;;17.59;100.00
21633;BME280;48765;51.568;8.840;2022-08-03T00:45:51;98525.66;;;17.64;100.00
21633;BME280;48765;51.568;8.840;2022-08-03T00:48:19;98522.31;;;17.57;100.00
21633;BME280;48765;51.568;8.840;2022-08-03T00:50:46;98528.88;;;17.49;100.00
21633;BME280;48765;51.568;8.840;2022-08-03T00:53:15;98523.03;;;17.36;100.00
21633;BME280;48765;51.568;8.840;2022-08-03T00:55:43;98522.75;;;17.17;100.00
21633;BME280;48765;51.568;8.840;2022-08-03T00:58:10;98521.59;;;17.26;100.00
21633;BME280;48765;51.568;8.840;2022-08-03T01:00:37;98518.00;;;17.27;100.00
21633;BME280;48765;51.568;8.840;2022-08-03T01:03:05;98518.69;;;17.05;100.00
21633;BME280;48765;51.568;8.840;2022-08-03T01:05:33;98517.81;;;17.05;100.00
21633;BME280;48765;51.568;8.840;2022-08-03T01:08:05;98513.41;;;17.02;100.00
21633;BME280;48765;51.568;8.840;2022-08-03T01:10:38;98511.75;;;16.98;100.00
21633;BME280;48765;51.568;8.840;2022-08-03T01:13:13;98512.59;;;17.00;100.00
21633;BME280;48765;51.568;8.840;2022-08-03T01:15:45;98503.78;;;16.97;100.00
21633;BME280;48765;51.568;8.840;2022-08-03T01:18:16;98510.56;;;17.08;100.00
21633;BME280;48765;51.568;8.840;2022-08-03T01:20:44;98507.69;;;17.15;100.00
21633;BME280;48765;51.568;8.840;2022-08-03T01:23:21;98500.28;;;16.95;100.00
21633;BME280;48765;51.568;8.840;2022-08-03T01:26:05;98502.25;;;16.88;100.00
21633;BME280;48765;51.568;8.840;2022-08-03T01:28:42;98501.44;;;16.86;100.00
21633;BME280;48765;51.568;8.840;2022-08-03T01:31:17;98503.47;;;16.78;100.00
21633;BME280;48765;51.568;8.840;2022-08-03T01:33:47;98499.06;;;16.77;100.00
21633;BME280;48765;51.568;8.840;2022-08-03T01:36:16;98501.66;;;16.80;100.00
21633;BME280;48765;51.568;8.840;2022-08-03T01:38:45;98505.66;;;16.93;100.00
21633;BME280;48765;51.568;8.840;2022-08-03T01:41:16;98498.91;;;16.81;100.00
21633;BME280;48765;51.568;8.840;2022-08-03T01:43:48;98500.59;;;16.84;100.00
21633;BME280;48765;51.568;8.840;2022-08-03T01:46:17;98500.66;;;16.82;100.00
21633;BME280;48765;51.568;8.840;2022-08-03T01:48:46;98503.25;;;16.85;100.00
21633;BME280;48765;51.568;8.840;2022-08-03T01:51:14;98497.94;;;16.84;100.00
21633;BME280;48765;51.568;8.840;2022-08-03T01:53:41;98500.59;;;16.84;100.00
21633;BME280;48765;51.568;8.840;2022-08-03T01:56:08;98504.72;;;16.66;100.00
21633;BME280;48765;51.568;8.840;2022-08-03T01:58:36;98499.31;;;16.68;100.00
21633;BME280;48765;51.568;8.840;2022-08-03T02:01:03;98500.81;;;16.78;100.00
21633;BME280;48765;51.568;8.840;2022-08-03T02:03:33;98496.44;;;16.75;100.00
21633;BME280;48765;51.568;8.840;2022-08-03T02:06:02;98493.84;;;16.72;100.00
21633;BME280;48765;51.568;8.840;2022-08-03T02:08:29;98488.75;;;16.63;100.00
21633;BME280;48765;51.568;8.840;2022-08-03T02:10:57;98487.03;;;16.60;100.00
21633;BME280;48765;51.568;8.840;2022-08-03T02:13:24;98495.25;;;16.54;100.00
21633;BME280;48765;51.568;8.840;2022-08-03T02:15:52;98490.88;;;16.52;100.00
21633;BME280;48765;51.568;8.840;2022-08-03T02:18:19;98491.34;;;16.65;100.00
21633;BME280;48765;51.568;8.840;2022-08-03T02:20:48;98489.63;;;16.64;100.00
21633;BME280;48765;51.568;8.840;2022-08-03T02:23:15;98485.47;;;16.53;100.00
21633;BME280;48765;51.568;8.840;2022-08-03T02:25:45;98490.16;;;16.45;100.00
21633;BME280;48765;51.568;8.840;2022-08-03T02:28:14;98490.09;;;16.48;100.00
21633;BME280;48765;51.568;8.840;2022-08-03T02:30:42;98491.91;;;16.46;100.00
21633;BME280;48765;51.568;8.840;2022-08-03T02:33:17;98481.41;;;16.40;100.00
21633;BME280;48765;51.568;8.840;2022-08-03T02:35:45;98490.44;;;16.36;100.00
21633;BME280;48765;51.568;8.840;2022-08-03T02:38:14;98477.66;;;16.46;100.00
21633;BME280;48765;51.568;8.840;2022-08-03T02:40:44;98483.06;;;16.44;100.00
21633;BME280;48765;51.568;8.840;2022-08-03T02:43:14;98483.63;;;16.55;100.00
21633;BME280;48765;51.568;8.840;2022-08-03T02:45:43;98486.56;;;16.46;100.00
21633;BME280;48765;51.568;8.840;2022-08-03T02:48:11;98480.44;;;16.43;100.00
21633;BME280;48765;51.568;8.840;2022-08-03T02:50:41;98482.50;;;16.63;100.00
21633;BME280;48765;51.568;8.840;2022-08-03T02:53:10;98485.25;;;16.61;100.00
21633;BME280;48765;51.568;8.840;2022-08-03T02:55:39;98481.59;;;16.64;100.00
21633;BME280;48765;51.568;8.840;2022-08-03T02:58:07;98481.88;;;16.54;100.00
21633;BME280;48765;51.568;8.840;2022-08-03T03:00:34;98476.00;;;16.42;100.00
21633;BME280;48765;51.568;8.840;2022-08-03T03:03:03;98471.56;;;16.42;100.00
21633;BME280;48765;51.568;8.840;2022-08-03T03:05:30;98469.16;;;16.33;100.00
21633;BME280;48765;51.568;8.840;2022-08-03T03:07:57;98473.47;;;16.37;100.00
21633;BME280;48765;51.568;8.840;2022-08-03T03:10:25;98476.91;;;16.42;100.00
21633;BME280;48765;51.568;8.840;2022-08-03T03:12:54;98472.72;;;16.32;100.00
21633;BME280;48765;51.568;8.840;2022-08-03T03:15:22;98481.81;;;16.56;100.00
21633;BME280;48765;51.568;8.840;2022-08-03T03:17:49;98475.97;;;16.43;100.00
21633;BME280;48765;51.568;8.840;2022-08-03T03:20:18;98475.19;;;16.40;100.00
21633;BME280;48765;51.568;8.840;2022-08-03T03:22:46;98473.59;;;16.32;100.00
21633;BME280;48765;51.568;8.840;2022-08-03T03:25:13;98473.19;;;16.17;100.00
21633;BME280;48765;51.568;8.840;2022-08-03T03:27:41;98478.53;;;16.17;100.00
21633;BME280;48765;51.568;8.840;2022-08-03T03:30:10;98481.59;;;16.03;100.00
21633;BME280;48765;51.568;8.840;2022-08-03T03:32:38;98494.22;;;16.29;100.00
21633;BME280;48765;51.568;8.840;2022-08-03T03:35:05;98486.94;;;16.34;100.00
21633;BME280;48765;51.568;8.840;2022-08-03T03:37:32;98484.81;;;16.16;100.00
21633;BME280;48765;51.568;8.840;2022-08-03T03:39:59;98478.44;;;16.20;100.00
21633;BME280;48765;51.568;8.840;2022-08-03T03:42:26;98483.00;;;16.16;100.00
21633;BME280;48765;51.568;8.840;2022-08-03T03:44:53;98484.75;;;16.17;100.00
21633;BME280;48765;51.568;8.840;2022-08-03T03:47:21;98487.28;;;16.22;100.00
21633;BME280;48765;51.568;8.840;2022-08-03T03:49:49;98483.88;;;16.17;100.00
21633;BME280;48765;51.568;8.840;2022-08-03T03:52:16;98485.75;;;16.13;100.00
21633;BME280;48765;51.568;8.840;2022-08-03T03:54:43;98487.75;;;16.06;100.00
21633;BME280;48765;51.568;8.840;2022-08-03T03:57:10;98485.88;;;16.08;100.00
21633;BME280;48765;51.568;8.840;2022-08-03T03:59:37;98486.75;;;16.09;100.00
21633;BME280;48765;51.568;8.840;2022-08-03T04:02:04;98482.31;;;16.09;100.00
21633;BME280;48765;51.568;8.840;2022-08-03T04:04:33;98490.47;;;16.05;100.00
21633;BME280;48765;51.568;8.840;2022-08-03T04:07:20;98487.63;;;16.11;100.00
21633;BME280;48765;51.568;8.840;2022-08-03T04:10:09;98482.66;;;16.28;100.00
21633;BME280;48765;51.568;8.840;2022-08-03T04:12:55;98490.50;;;16.03;100.00
21633;BME280;48765;51.568;8.840;2022-08-03T04:15:24;98492.81;;;16.16;100.00
21633;BME280;48765;51.568;8.840;2022-08-03T04:17:52;98482.66;;;15.97;100.00
21633;BME280;48765;51.568;8.840;2022-08-03T04:20:22;98488.63;;;16.07;100.00
21633;BME280;48765;51.568;8.840;2022-08-03T04:22:50;98492.88;;;16.14;100.00
21633;BME280;48765;51.568;8.840;2022-08-03T04:25:17;98489.69;;;16.31;100.00
21633;BME280;48765;51.568;8.840;2022-08-03T04:27:46;98490.38;;;16.39;100.00
21633;BME280;48765;51.568;8.840;2022-08-03T04:30:16;98492.47;;;16.28;100.00
21633;BME280;48765;51.568;8.840;2022-08-03T04:32:44;98495.28;;;16.23;100.00
21633;BME280;48765;51.568;8.840;2022-08-03T04:35:16;98495.00;;;16.32;100.00
21633;BME280;48765;51.568;8.840;2022-08-03T04:37:45;98498.47;;;16.36;100.00
21633;BME280;48765;51.568;8.840;2022-08-03T04:40:13;98502.00;;;16.36;100.00
21633;BME280;48765;51.568;8.840;2022-08-03T04:42:41;98497.19;;;16.49;100.00
21633;BME280;48765;51.568;8.840;2022-08-03T04:45:10;98507.69;;;16.55;100.00
21633;BME280;48765;51.568;8.840;2022-08-03T04:47:38;98509.63;;;16.52;100.00
21633;BME280;48765;51.568;8.840;2022-08-03T04:50:05;98508.81;;;16.48;100.00
21633;BME280;48765;51.568;8.840;2022-08-03T04:52:33;98507.69;;;16.55;100.00
21633;BME280;48765;51.568;8.840;2022-08-03T04:55:02;98511.91;;;16.64;100.00
21633;BME280;48765;51.568;8.840;2022-08-03T04:57:29;98501.44;;;16.56;100.00
21633;BME280;48765;51.568;8.840;2022-08-03T04:59:56;98505.75;;;16.60;100.00
21633;BME280;48765;51.568;8.840;2022-08-03T05:02:23;98511.81;;;16.67;100.00
21633;BME280;48765;51.568;8.840;2022-08-03T05:04:50;98513.38;;;16.76;100.00
21633;BME280;48765;51.568;8.840;2022-08-03T05:07:17;98512.06;;;16.89;100.00
21633;BME280;48765;51.568;8.840;2022-08-03T05:09:45;98512.16;;;16.86;100.00
21633;BME280;48765;51.568;8.840;2022-08-03T05:12:14;98509.06;;;17.00;100.00
21633;BME280;48765;51.568;8.840;2022-08-03T05:14:40;98507.59;;;17.18;100.00
21633;BME280;48765;51.568;8.840;2022-08-03T05:17:08;98510.34;;;17.15;100.00
21633;BME280;48765;51.568;8.840;2022-08-03T05:19:35;98511.28;;;17.40;100.00
21633;BME280;48765;51.568;8.840;2022-08-03T05:22:02;98503.81;;;17.50;100.00
21633;BME280;48765;51.568;8.840;2022-08-03T05:24:29;98503.03;;;17.74;100.00
21633;BME280;48765;51.568;8.840;2022-08-03T05:26:56;98501.97;;;17.78;100.00
21633;BME280;48765;51.568;8.840;2022-08-03T05:29:24;98511.22;;;17.68;100.00
21633;BME280;48765;51.568;8.840;2022-08-03T05:31:51;98504.84;;;17.72;100.00
21633;BME280;48765;51.568;8.840;2022-08-03T05:34:19;98500.19;;;17.79;100.00
21633;BME280;48765;51.568;8.840;2022-08-03T05:36:46;98505.09;;;17.91;100.00
21633;BME280;48765;51.568;8.840;2022-08-03T05:39:13;98505.03;;;18.18;100.00
21633;BME280;48765;51.568;8.840;2022-08-03T05:41:40;98508.91;;;18.34;100.00
21633;BME280;48765;51.568;8.840;2022-08-03T05:44:07;98500.41;;;18.46;100.00
21633;BME280;48765;51.568;8.840;2022-08-03T05:46:35;98502.63;;;18.58;100.00
21633;BME280;48765;51.568;8.840;2022-08-03T05:49:02;98500.81;;;18.59;100.00
21633;BME280;48765;51.568;8.840;2022-08-03T05:51:30;98502.25;;;18.68;100.00
21633;BME280;48765;51.568;8.840;2022-08-03T05:53:57;98499.06;;;18.81;100.00
21633;BME280;48765;51.568;8.840;2022-08-03T05:56:24;98499.81;;;18.85;100.00
21633;BME280;48765;51.568;8.840;2022-08-03T05:58:51;98507.22;;;19.02;100.00
21633;BME280;48765;51.568;8.840;2022-08-03T06:01:18;98496.72;;;19.18;100.00
21633;BME280;48765;51.568;8.840;2022-08-03T06:03:48;98494.84;;;19.20;100.00
21633;BME280;48765;51.568;8.840;2022-08-03T06:06:16;98503.97;;;19.15;100.00
21633;BME280;48765;51.568;8.840;2022-08-03T06:08:43;98495.94;;;19.36;100.00
21633;BME280;48765;51.568;8.840;2022-08-03T06:11:11;98506.25;;;19.69;100.00
21633;BME280;48765;51.568;8.840;2022-08-03T06:13:38;98502.16;;;19.80;100.00
21633;BME280;48765;51.568;8.840;2022-08-03T06:16:05;98499.72;;;19.95;100.00
21633;BME280;48765;51.568;8.840;2022-08-03T06:18:32;98497.13;;;19.93;100.00
21633;BME280;48765;51.568;8.840;2022-08-03T06:21:01;98497.19;;;20.12;100.00
21633;BME280;48765;51.568;8.840;2022-08-03T06:23:28;98499.13;;;20.29;100.00
21633;BME280;48765;51.568;8.840;2022-08-03T06:25:56;98504.22;;;20.35;100.00
21633;BME280;48765;51.568;8.840;2022-08-03T06:28:23;98506.16;;;20.31;100.00
21633;BME280;48765;51.568;8.840;2022-08-03T06:30:50;98506.50;;;20.44;100.00
21633;BME280;48765;51.568;8.840;2022-08-03T06:33:17;98505.00;;;20.57;100.00
21633;BME280;48765;51.568;8.840;2022-08-03T06:35:44;98502.97;;;20.62;100.00
21633;BME280;48765;51.568;8.840;2022-08-03T06:38:12;98509.69;;;20.73;100.00
21633;BME280;48765;51.568;8.840;2022-08-03T06:40:39;98508.94;;;20.88;100.00
21633;BME280;48765;51.568;8.840;2022-08-03T06:43:06;98508.22;;;21.03;100.00
21633;BME280;48765;51.568;8.840;2022-08-03T06:45:33;98513.00;;;21.15;100.00
21633;BME280;48765;51.568;8.840;2022-08-03T06:48:01;98513.16;;;21.31;100.00
21633;BME280;48765;51.568;8.840;2022-08-03T06:50:28;98516.75;;;21.49;100.00
21633;BME280;48765;51.568;8.840;2022-08-03T06:52:55;98521.69;;;21.58;100.00
21633;BME280;48765;51.568;8.840;2022-08-03T06:55:24;98516.47;;;21.73;100.00
21633;BME280;48765;51.568;8.840;2022-08-03T06:57:51;98526.00;;;21.80;100.00
21633;BME280;48765;51.568;8.840;2022-08-03T07:00:18;98522.13;;;21.85;100.00
21633;BME280;48765;51.568;8.840;2022-08-03T07:02:45;98517.03;;;21.97;100.00
21633;BME280;48765;51.568;8.840;2022-08-03T07:05:12;98521.91;;;22.07;100.00
21633;BME280;48765;51.568;8.840;2022-08-03T07:07:39;98524.16;;;22.16;100.00
21633;BME280;48765;51.568;8.840;2022-08-03T07:10:06;98524.78;;;22.22;100.00
21633;BME280;48765;51.568;8.840;2022-08-03T07:12:35;98521.00;;;22.41;100.00
21633;BME280;48765;51.568;8.840;2022-08-03T07:15:03;98522.75;;;22.42;100.00
21633;BME280;48765;51.568;8.840;2022-08-03T07:17:31;98522.00;;;22.56;100.00
21633;BME280;48765;51.568;8.840;2022-08-03T07:19:59;98523.78;;;22.73;100.00
21633;BME280;48765;51.568;8.840;2022-08-03T07:22:26;98521.03;;;22.90;100.00
21633;BME280;48765;51.568;8.840;2022-08-03T07:24:53;98533.03;;;22.85;100.00
21633;BME280;48765;51.568;8.840;2022-08-03T07:27:20;98520.19;;;23.06;100.00
21633;BME280;48765;51.568;8.840;2022-08-03T07:29:49;98528.13;;;23.25;100.00
21633;BME280;48765;51.568;8.840;2022-08-03T07:32:16;98531.00;;;23.53;100.00
21633;BME280;48765;51.568;8.840;2022-08-03T07:34:43;98535.97;;;23.77;100.00
21633;BME280;48765;51.568;8.840;2022-08-03T07:37:10;98526.75;;;23.95;100.00
21633;BME280;48765;51.568;8.840;2022-08-03T07:39:37;98528.94;;;24.18;100.00
21633;BME280;48765;51.568;8.840;2022-08-03T07:42:04;98525.41;;;24.16;93.58
21633;BME280;48765;51.568;8.840;2022-08-03T07:44:31;98519.69;;;24.51;91.84
21633;BME280;48765;51.568;8.840;2022-08-03T07:46:59;98524.53;;;24.46;91.94
21633;BME280;48765;51.568;8.840;2022-08-03T07:49:26;98521.63;;;24.49;91.64
21633;BME280;48765;51.568;8.840;2022-08-03T07:51:53;98521.75;;;24.62;91.16
21633;BME280;48765;51.568;8.840;2022-08-03T07:54:34;98531.03;;;24.86;91.96
21633;BME280;48765;51.568;8.840;2022-08-03T07:57:00;98520.66;;;24.93;86.56
21633;BME280;48765;51.568;8.840;2022-08-03T07:59:28;98531.31;;;24.82;85.77
21633;BME280;48765;51.568;8.840;2022-08-03T08:01:54;98528.59;;;25.24;87.16
21633;BME280;48765;51.568;8.840;2022-08-03T08:04:23;98525.41;;;25.18;82.54
21633;BME280;48765;51.568;8.840;2022-08-03T08:06:50;98536.31;;;25.31;84.27
21633;BME280;48765;51.568;8.840;2022-08-03T08:09:17;98528.31;;;25.15;83.72
21633;BME280;48765;51.568;8.840;2022-08-03T08:11:43;98528.97;;;25.33;82.03
21633;BME280;48765;51.568;8.840;2022-08-03T08:14:10;98513.69;;;25.71;75.10
21633;BME280;48765;51.568;8.840;2022-08-03T08:16:37;98527.44;;;25.83;72.90
21633;BME280;48765;51.568;8.840;2022-08-03T08:19:05;98529.19;;;25.84;76.16
21633;BME280;48765;51.568;8.840;2022-08-03T08:21:33;98533.47;;;26.00;73.30
21633;BME280;48765;51.568;8.840;2022-08-03T08:24:00;98520.97;;;25.98;70.83
21633;BME280;48765;51.568;8.840;2022-08-03T08:26:27;98519.47;;;26.19;66.91
21633;BME280;48765;51.568;8.840;2022-08-03T08:28:54;98520.91;;;26.12;67.72
21633;BME280;48765;51.568;8.840;2022-08-03T08:31:21;98523.38;;;26.15;73.15
21633;BME280;48765;51.568;8.840;2022-08-03T08:33:48;98516.47;;;26.37;68.79
21633;BME280;48765;51.568;8.840;2022-08-03T08:36:15;98512.56;;;26.66;67.74
21633;BME280;48765;51.568;8.840;2022-08-03T08:38:43;98509.09;;;26.64;65.20
21633;BME280;48765;51.568;8.840;2022-08-03T08:41:10;98512.25;;;26.71;67.10
21633;BME280;48765;51.568;8.840;2022-08-03T08:43:38;98524.09;;;26.57;67.03
21633;BME280;48765;51.568;8.840;2022-08-03T08:46:05;98514.28;;;26.42;68.94
21633;BME280;48765;51.568;8.840;2022-08-03T08:48:33;98517.47;;;26.74;68.24
21633;BME280;48765;51.568;8.840;2022-08-03T08:51:01;98515.41;;;26.78;66.47
21633;BME280;48765;51.568;8.840;2022-08-03T08:53:28;98508.91;;;27.04;65.59
21633;BME280;48765;51.568;8.840;2022-08-03T08:55:59;98512.00;;;27.12;65.14
21633;BME280;48765;51.568;8.840;2022-08-03T08:58:28;98515.34;;;27.03;64.56
21633;BME280;48765;51.568;8.840;2022-08-03T09:00:55;98508.56;;;27.34;62.14
21633;BME280;48765;51.568;8.840;2022-08-03T09:03:23;98512.72;;;27.14;62.88
21633;BME280;48765;51.568;8.840;2022-08-03T09:05:50;98513.25;;;27.19;61.59
21633;BME280;48765;51.568;8.840;2022-08-03T09:08:17;98516.97;;;27.18;64.50
21633;BME280;48765;51.568;8.840;2022-08-03T09:10:44;98516.44;;;27.13;64.24
21633;BME280;48765;51.568;8.840;2022-08-03T09:13:13;98522.69;;;27.39;62.83
21633;BME280;48765;51.568;8.840;2022-08-03T09:15:43;98515.28;;;27.41;62.26
21633;BME280;48765;51.568;8.840;2022-08-03T09:18:26;98510.94;;;27.39;60.26
21633;BME280;48765;51.568;8.840;2022-08-03T09:20:54;98514.56;;;27.50;59.71
21633;BME280;48765;51.568;8.840;2022-08-03T09:23:42;98511.16;;;27.36;58.32
21633;BME280;48765;51.568;8.840;2022-08-03T09:26:10;98525.13;;;27.55;61.33
21633;BME280;48765;51.568;8.840;2022-08-03T09:28:38;98512.19;;;27.83;59.26
21633;BME280;48765;51.568;8.840;2022-08-03T09:31:05;98519.72;;;27.66;58.79
21633;BME280;48765;51.568;8.840;2022-08-03T09:33:33;98516.09;;;28.02;57.94
21633;BME280;48765;51.568;8.840;2022-08-03T09:38:59;98519.06;;;27.75;57.49
21633;BME280;48765;51.568;8.840;2022-08-03T09:41:26;98511.66;;;27.77;57.92
21633;BME280;48765;51.568;8.840;2022-08-03T09:43:55;98509.28;;;28.08;58.62
21633;BME280;48765;51.568;8.840;2022-08-03T09:46:22;98516.50;;;28.09;55.77
21633;BME280;48765;51.568;8.840;2022-08-03T09:48:49;98515.22;;;28.02;55.40
21633;BME280;48765;51.568;8.840;2022-08-03T09:51:19;98509.06;;;28.11;56.78
21633;BME280;48765;51.568;8.840;2022-08-03T09:53:50;98506.31;;;28.00;56.43
21633;BME280;48765;51.568;8.840;2022-08-03T09:56:17;98508.34;;;28.32;57.97
21633;BME280;48765;51.568;8.840;2022-08-03T09:58:45;98509.19;;;28.10;58.26
21633;BME280;48765;51.568;8.840;2022-08-03T10:01:13;98507.16;;;28.36;60.10
21633;BME280;48765;51.568;8.840;2022-08-03T10:03:40;98507.47;;;28.20;57.04
21633;BME280;48765;51.568;8.840;2022-08-03T10:06:13;98504.75;;;28.20;57.57
21633;BME280;48765;51.568;8.840;2022-08-03T10:08:40;98510.66;;;28.49;57.16
21633;BME280;48765;51.568;8.840;2022-08-03T10:11:07;98501.47;;;28.39;56.44
21633;BME280;48765;51.568;8.840;2022-08-03T10:13:34;98502.34;;;28.50;57.30
21633;BME280;48765;51.568;8.840;2022-08-03T10:16:02;98494.31;;;28.38;58.71
21633;BME280;48765;51.568;8.840;2022-08-03T10:18:31;98488.63;;;28.63;59.49
21633;BME280;48765;51.568;8.840;2022-08-03T10:21:00;98500.50;;;28.73;55.88
21633;BME280;48765;51.568;8.840;2022-08-03T10:23:28;98495.94;;;28.51;54.55
21633;BME280;48765;51.568;8.840;2022-08-03T10:25:56;98496.56;;;28.77;55.53
21633;BME280;48765;51.568;8.840;2022-08-03T10:28:24;98493.53;;;28.36;55.76
21633;BME280;48765;51.568;8.840;2022-08-03T10:30:51;98490.13;;;28.90;56.51
21633;BME280;48765;51.568;8.840;2022-08-03T10:33:19;98494.72;;;28.89;54.48
21633;BME280;48765;51.568;8.840;2022-08-03T10:35:49;98496.81;;;28.97;56.34
21633;BME280;48765;51.568;8.840;2022-08-03T10:38:18;98504.75;;;28.77;57.73
21633;BME280;48765;51.568;8.840;2022-08-03T10:40:46;98489.34;;;28.65;55.18
21633;BME280;48765;51.568;8.840;2022-08-03T10:43:17;98485.16;;;28.61;55.92
21633;BME280;48765;51.568;8.840;2022-08-03T10:45:45;98487.88;;;28.72;55.52
21633;BME280;48765;51.568;8.840;2022-08-03T10:48:12;98477.69;;;28.41;54.80
21633;BME280;48765;51.568;8.840;2022-08-03T10:50:39;98480.69;;;28.71;53.82
21633;BME280;48765;51.568;8.840;2022-08-03T10:53:10;98481.81;;;29.02;53.77
21633;BME280;48765;51.568;8.840;2022-08-03T10:55:38;98476.91;;;29.40;55.76
21633;BME280;48765;51.568;8.840;2022-08-03T11:01:09;98473.50;;;29.15;54.93
21633;BME280;48765;51.568;8.840;2022-08-03T11:04:13;98478.22;;;29.13;54.17
21633;BME280;48765;51.568;8.840;2022-08-03T11:06:29;98471.91;;;29.13;54.23
21633;BME280;48765;51.568;8.840;2022-08-03T11:11:39;98470.94;;;29.46;54.08
21633;BME280;48765;51.568;8.840;2022-08-03T11:14:09;98462.81;;;29.23;53.39
21633;BME280;48765;51.568;8.840;2022-08-03T11:16:36;98451.50;;;29.28;51.98
21633;BME280;48765;51.568;8.840;2022-08-03T11:19:05;98453.75;;;29.23;52.93
21633;BME280;48765;51.568;8.840;2022-08-03T11:21:52;98456.00;;;29.50;51.81
21633;BME280;48765;51.568;8.840;2022-08-03T11:27:17;98464.50;;;29.47;52.68
21633;BME280;48765;51.568;8.840;2022-08-03T11:29:53;98467.19;;;29.58;52.67
21633;BME280;48765;51.568;8.840;2022-08-03T11:35:08;98461.66;;;29.26;51.71
21633;BME280;48765;51.568;8.840;2022-08-03T11:37:35;98456.59;;;29.21;50.06
21633;BME280;48765;51.568;8.840;2022-08-03T11:40:03;98459.19;;;29.34;50.07
21633;BME280;48765;51.568;8.840;2022-08-03T11:42:41;98452.56;;;29.48;50.63
21633;BME280;48765;51.568;8.840;2022-08-03T11:45:09;98450.47;;;29.40;51.61
21633;BME280;48765;51.568;8.840;2022-08-03T11:47:37;98458.75;;;29.50;51.56
21633;BME280;48765;51.568;8.840;2022-08-03T11:50:06;98453.94;;;29.42;51.57
21633;BME280;48765;51.568;8.840;2022-08-03T11:52:33;98458.22;;;29.67;53.61
21633;BME280;48765;51.568;8.840;2022-08-03T11:55:01;98464.78;;;29.97;53.00
21633;BME280;48765;51.568;8.840;2022-08-03T11:57:28;98457.28;;;29.57;53.58
21633;BME280;48765;51.568;8.840;2022-08-03T11:59:57;98454.50;;;29.68;52.08
21633;BME280;48765;51.568;8.840;2022-08-03T12:02:24;98464.13;;;29.84;52.53
21633;BME280;48765;51.568;8.840;2022-08-03T12:04:51;98463.34;;;29.61;50.91
21633;BME280;48765;51.568;8.840;2022-08-03T12:07:20;98451.91;;;29.67;50.83
21633;BME280;48765;51.568;8.840;2022-08-03T12:12:29;98455.28;;;30.12;52.30
21633;BME280;48765;51.568;8.840;2022-08-03T12:14:57;98452.44;;;30.14;48.54
21633;BME280;48765;51.568;8.840;2022-08-03T12:17:31;98446.88;;;29.83;46.86
21633;BME280;48765;51.568;8.840;2022-08-03T12:19:58;98446.16;;;30.02;46.75
21633;BME280;48765;51.568;8.840;2022-08-03T12:22:31;98439.56;;;30.25;48.84
21633;BME280;48765;51.568;8.840;2022-08-03T12:24:58;98442.31;;;30.25;49.54
21633;BME280;48765;51.568;8.840;2022-08-03T12:27:30;98437.31;;;30.31;48.19
21633;BME280;48765;51.568;8.840;2022-08-03T12:30:06;98432.38;;;30.55;48.91
21633;BME280;48765;51.568;8.840;2022-08-03T12:32:33;98451.34;;;30.47;51.51
21633;BME280;48765;51.568;8.840;2022-08-03T12:35:00;98444.19;;;30.35;49.73
21633;BME280;48765;51.568;8.840;2022-08-03T12:37:30;98447.28;;;30.20;49.87
21633;BME280;48765;51.568;8.840;2022-08-03T12:39:58;98442.13;;;30.48;52.97
21633;BME280;48765;51.568;8.840;2022-08-03T12:42:28;98447.59;;;30.06;51.89
21633;BME280;48765;51.568;8.840;2022-08-03T12:44:55;98442.13;;;30.06;52.13
21633;BME280;48765;51.568;8.840;2022-08-03T12:47:24;98435.84;;;29.73;51.34
21633;BME280;48765;51.568;8.840;2022-08-03T12:49:51;98437.94;;;29.81;54.19
21633;BME280;48765;51.568;8.840;2022-08-03T12:52:19;98426.16;;;30.22;49.92
21633;BME280;48765;51.568;8.840;2022-08-03T12:54:53;98429.66;;;30.34;49.73
21633;BME280;48765;51.568;8.840;2022-08-03T12:57:20;98433.59;;;30.41;48.95
21633;BME280;48765;51.568;8.840;2022-08-03T12:59:47;98426.72;;;30.47;48.52
21633;BME280;48765;51.568;8.840;2022-08-03T13:02:14;98441.19;;;30.59;49.44
21633;BME280;48765;51.568;8.840;2022-08-03T13:04:43;98438.66;;;30.46;48.25
21633;BME280;48765;51.568;8.840;2022-08-03T13:07:10;98431.84;;;30.31;48.34
21633;BME280;48765;51.568;8.840;2022-08-03T13:09:41;98440.41;;;30.47;48.93
21633;BME280;48765;51.568;8.840;2022-08-03T13:12:09;98436.00;;;30.35;48.11
21633;BME280;48765;51.568;8.840;2022-08-03T13:14:36;98438.22;;;30.41;48.20
21633;BME280;48765;51.568;8.840;2022-08-03T13:17:03;98429.41;;;30.37;46.81
21633;BME280;48765;51.568;8.840;2022-08-03T13:19:30;98434.66;;;30.50;47.43